sensor_id;sensor_type;location;lat;lon;timestamp;temperature;humidity
74153;DHT22;62505;46.070;14.492;2024-03-02T00:01:05;22.50;69.10
74153;DHT22;62505;46.070;14.492;2024-03-02T00:03:34;22.50;70.00
74153;DHT22;62505;46.070;14.492;2024-03-02T00:06:01;22.40;69.10
74153;DHT22;62505;46.070;14.492;2024-03-02T00:08:29;22.50;69.10
74153;DHT22;62505;46.070;14.492;2024-03-02T00:10:57;22.50;69.10
74153;DHT22;62505;46.070;14.492;2024-03-02T00:13:25;22.50;69.10
74153;DHT22;62505;46.070;14.492;2024-03-02T00:15:53;22.40;69.10
74153;DHT22;62505;46.070;14.492;2024-03-02T00:18:25;22.50;69.10
74153;DHT22;62505;46.070;14.492;2024-03-02T00:20:55;22.40;69.00
74153;DHT22;62505;46.070;14.492;2024-03-02T00:23:23;22.40;69.10
74153;DHT22;62505;46.070;14.492;2024-03-02T00:25:52;22.50;69.10
74153;DHT22;62505;46.070;14.492;2024-03-02T00:28:21;22.40;69.10
74153;DHT22;62505;46.070;14.492;2024-03-02T00:30:55;22.40;69.00
74153;DHT22;62505;46.070;14.492;2024-03-02T00:33:23;22.40;69.00
74153;DHT22;62505;46.070;14.492;2024-03-02T00:35:50;22.40;69.10
74153;DHT22;62505;46.070;14.492;2024-03-02T00:38:19;22.40;69.00
74153;DHT22;62505;46.070;14.492;2024-03-02T00:40:46;22.40;69.00
74153;DHT22;62505;46.070;14.492;2024-03-02T00:46:06;22.40;69.00
74153;DHT22;62505;46.070;14.492;2024-03-02T00:48:33;22.40;69.10
74153;DHT22;62505;46.070;14.492;2024-03-02T00:51:01;22.40;69.00
74153;DHT22;62505;46.070;14.492;2024-03-02T00:53:31;22.40;69.00
74153;DHT22;62505;46.070;14.492;2024-03-02T00:55:59;22.40;69.00
74153;DHT22;62505;46.070;14.492;2024-03-02T00:58:27;22.40;68.90
74153;DHT22;62505;46.070;14.492;2024-03-02T01:00:54;22.40;69.00
74153;DHT22;62505;46.070;14.492;2024-03-02T01:03:21;22.40;69.00
74153;DHT22;62505;46.070;14.492;2024-03-02T01:05:48;22.40;69.00
74153;DHT22;62505;46.070;14.492;2024-03-02T01:08:15;22.40;69.00
74153;DHT22;62505;46.070;14.492;2024-03-02T01:10:43;22.40;69.00
74153;DHT22;62505;46.070;14.492;2024-03-02T01:13:10;22.40;68.90
74153;DHT22;62505;46.070;14.492;2024-03-02T01:15:37;22.40;69.00
74153;DHT22;62505;46.070;14.492;2024-03-02T01:18:04;22.40;69.70
74153;DHT22;62505;46.070;14.492;2024-03-02T01:20:31;22.40;69.00
74153;DHT22;62505;46.070;14.492;2024-03-02T01:22:59;22.40;68.90
74153;DHT22;62505;46.070;14.492;2024-03-02T01:25:25;22.40;68.90
74153;DHT22;62505;46.070;14.492;2024-03-02T01:27:54;22.40;68.90
74153;DHT22;62505;46.070;14.492;2024-03-02T01:30:21;22.40;68.90
74153;DHT22;62505;46.070;14.492;2024-03-02T01:32:48;22.40;68.80
74153;DHT22;62505;46.070;14.492;2024-03-02T01:35:15;22.40;68.80
74153;DHT22;62505;46.070;14.492;2024-03-02T01:37:42;22.40;69.60
74153;DHT22;62505;46.070;14.492;2024-03-02T01:40:10;22.40;68.80
74153;DHT22;62505;46.070;14.492;2024-03-02T01:42:37;22.40;68.80
74153;DHT22;62505;46.070;14.492;2024-03-02T01:45:07;22.40;68.80
74153;DHT22;62505;46.070;14.492;2024-03-02T01:47:35;22.40;68.80
74153;DHT22;62505;46.070;14.492;2024-03-02T01:50:02;22.40;68.80
74153;DHT22;62505;46.070;14.492;2024-03-02T01:52:29;22.40;68.80
74153;DHT22;62505;46.070;14.492;2024-03-02T01:54:56;22.40;68.90
74153;DHT22;62505;46.070;14.492;2024-03-02T01:57:23;22.40;68.80
74153;DHT22;62505;46.070;14.492;2024-03-02T01:59:50;22.40;68.80
74153;DHT22;62505;46.070;14.492;2024-03-02T02:02:19;22.40;68.80
74153;DHT22;62505;46.070;14.492;2024-03-02T02:04:47;22.40;68.80
74153;DHT22;62505;46.070;14.492;2024-03-02T02:07:14;22.40;68.70
74153;DHT22;62505;46.070;14.492;2024-03-02T02:09:41;22.40;68.70
74153;DHT22;62505;46.070;14.492;2024-03-02T02:12:09;22.40;68.70
74153;DHT22;62505;46.070;14.492;2024-03-02T02:14:36;22.40;68.80
74153;DHT22;62505;46.070;14.492;2024-03-02T02:17:05;22.40;68.80
74153;DHT22;62505;46.070;14.492;2024-03-02T02:19:34;22.40;68.70
74153;DHT22;62505;46.070;14.492;2024-03-02T02:22:02;22.40;68.80
74153;DHT22;62505;46.070;14.492;2024-03-02T02:24:29;22.40;68.70
74153;DHT22;62505;46.070;14.492;2024-03-02T02:26:56;22.40;68.80
74153;DHT22;62505;46.070;14.492;2024-03-02T02:29:23;22.40;68.80
74153;DHT22;62505;46.070;14.492;2024-03-02T02:31:50;22.40;68.80
74153;DHT22;62505;46.070;14.492;2024-03-02T02:34:17;22.40;68.70
74153;DHT22;62505;46.070;14.492;2024-03-02T02:36:44;22.40;68.70
74153;DHT22;62505;46.070;14.492;2024-03-02T02:39:15;22.40;68.80
74153;DHT22;62505;46.070;14.492;2024-03-02T02:41:43;22.40;68.80
74153;DHT22;62505;46.070;14.492;2024-03-02T02:44:09;22.40;68.70
74153;DHT22;62505;46.070;14.492;2024-03-02T02:46:38;22.40;68.70
74153;DHT22;62505;46.070;14.492;2024-03-02T02:49:05;22.40;68.70
74153;DHT22;62505;46.070;14.492;2024-03-02T02:51:32;22.40;68.70
74153;DHT22;62505;46.070;14.492;2024-03-02T02:53:59;22.40;68.70
74153;DHT22;62505;46.070;14.492;2024-03-02T02:56:27;22.40;68.80
74153;DHT22;62505;46.070;14.492;2024-03-02T02:58:54;22.40;68.80
74153;DHT22;62505;46.070;14.492;2024-03-02T03:01:21;22.40;68.80
74153;DHT22;62505;46.070;14.492;2024-03-02T03:03:48;22.40;69.50
74153;DHT22;62505;46.070;14.492;2024-03-02T03:06:15;22.40;68.70
74153;DHT22;62505;46.070;14.492;2024-03-02T03:08:42;22.40;68.80
74153;DHT22;62505;46.070;14.492;2024-03-02T03:11:09;22.40;68.70
74153;DHT22;62505;46.070;14.492;2024-03-02T03:13:37;22.40;68.80
74153;DHT22;62505;46.070;14.492;2024-03-02T03:16:05;22.40;68.70
74153;DHT22;62505;46.070;14.492;2024-03-02T03:18:32;22.40;68.80
74153;DHT22;62505;46.070;14.492;2024-03-02T03:20:59;22.40;68.70
74153;DHT22;62505;46.070;14.492;2024-03-02T03:23:26;22.40;68.70
74153;DHT22;62505;46.070;14.492;2024-03-02T03:25:53;22.40;68.60
74153;DHT22;62505;46.070;14.492;2024-03-02T03:28:20;22.40;68.70
74153;DHT22;62505;46.070;14.492;2024-03-02T03:30:48;22.40;68.70
74153;DHT22;62505;46.070;14.492;2024-03-02T03:33:15;22.40;68.60
74153;DHT22;62505;46.070;14.492;2024-03-02T03:35:42;22.40;68.70
74153;DHT22;62505;46.070;14.492;2024-03-02T03:38:09;22.40;68.70
74153;DHT22;62505;46.070;14.492;2024-03-02T03:40:36;22.40;68.60
74153;DHT22;62505;46.070;14.492;2024-03-02T03:43:03;22.40;68.60
74153;DHT22;62505;46.070;14.492;2024-03-02T03:45:30;22.40;68.60
74153;DHT22;62505;46.070;14.492;2024-03-02T03:47:57;22.40;68.60
74153;DHT22;62505;46.070;14.492;2024-03-02T03:50:24;22.40;68.60
74153;DHT22;62505;46.070;14.492;2024-03-02T03:52:51;22.40;68.60
74153;DHT22;62505;46.070;14.492;2024-03-02T03:55:18;22.40;68.60
74153;DHT22;62505;46.070;14.492;2024-03-02T03:57:45;22.40;68.50
74153;DHT22;62505;46.070;14.492;2024-03-02T04:00:13;22.40;68.50
74153;DHT22;62505;46.070;14.492;2024-03-02T04:02:41;22.40;68.50
74153;DHT22;62505;46.070;14.492;2024-03-02T04:05:09;22.40;68.50
74153;DHT22;62505;46.070;14.492;2024-03-02T04:07:37;22.40;69.30
74153;DHT22;62505;46.070;14.492;2024-03-02T04:10:09;22.40;68.50
74153;DHT22;62505;46.070;14.492;2024-03-02T04:12:36;22.40;68.60
74153;DHT22;62505;46.070;14.492;2024-03-02T04:15:04;22.40;68.60
74153;DHT22;62505;46.070;14.492;2024-03-02T04:17:32;22.40;68.60
74153;DHT22;62505;46.070;14.492;2024-03-02T04:20:02;22.40;68.50
74153;DHT22;62505;46.070;14.492;2024-03-02T04:22:33;22.40;68.60
74153;DHT22;62505;46.070;14.492;2024-03-02T04:25:01;22.40;68.50
74153;DHT22;62505;46.070;14.492;2024-03-02T04:27:30;22.40;68.50
74153;DHT22;62505;46.070;14.492;2024-03-02T04:29:58;22.40;68.50
74153;DHT22;62505;46.070;14.492;2024-03-02T04:32:25;22.40;68.60
74153;DHT22;62505;46.070;14.492;2024-03-02T04:34:52;22.40;68.50
74153;DHT22;62505;46.070;14.492;2024-03-02T04:37:20;22.40;68.50
74153;DHT22;62505;46.070;14.492;2024-03-02T04:39:48;22.40;68.50
74153;DHT22;62505;46.070;14.492;2024-03-02T04:42:15;22.40;68.50
74153;DHT22;62505;46.070;14.492;2024-03-02T04:44:42;22.40;68.50
74153;DHT22;62505;46.070;14.492;2024-03-02T04:47:09;22.40;68.50
74153;DHT22;62505;46.070;14.492;2024-03-02T04:49:36;22.40;68.50
74153;DHT22;62505;46.070;14.492;2024-03-02T04:52:03;22.40;68.50
74153;DHT22;62505;46.070;14.492;2024-03-02T04:54:30;22.40;68.50
74153;DHT22;62505;46.070;14.492;2024-03-02T04:56:59;22.40;68.40
74153;DHT22;62505;46.070;14.492;2024-03-02T04:59:26;22.40;68.40
74153;DHT22;62505;46.070;14.492;2024-03-02T05:01:53;22.40;68.50
74153;DHT22;62505;46.070;14.492;2024-03-02T05:04:20;22.40;68.40
74153;DHT22;62505;46.070;14.492;2024-03-02T05:06:47;22.40;68.40
74153;DHT22;62505;46.070;14.492;2024-03-02T05:09:18;22.40;68.40
74153;DHT22;62505;46.070;14.492;2024-03-02T05:11:45;22.40;68.40
74153;DHT22;62505;46.070;14.492;2024-03-02T05:14:27;22.40;68.50
74153;DHT22;62505;46.070;14.492;2024-03-02T05:16:54;22.40;68.40
74153;DHT22;62505;46.070;14.492;2024-03-02T05:19:21;22.40;68.40
74153;DHT22;62505;46.070;14.492;2024-03-02T05:21:48;22.40;68.40
74153;DHT22;62505;46.070;14.492;2024-03-02T05:24:15;22.40;68.40
74153;DHT22;62505;46.070;14.492;2024-03-02T05:26:42;22.40;68.40
74153;DHT22;62505;46.070;14.492;2024-03-02T05:29:09;22.40;68.40
74153;DHT22;62505;46.070;14.492;2024-03-02T05:31:37;22.40;68.40
74153;DHT22;62505;46.070;14.492;2024-03-02T05:34:04;22.40;68.40
74153;DHT22;62505;46.070;14.492;2024-03-02T05:36:32;22.40;68.40
74153;DHT22;62505;46.070;14.492;2024-03-02T05:38:59;22.40;68.30
74153;DHT22;62505;46.070;14.492;2024-03-02T05:41:26;22.40;68.40
74153;DHT22;62505;46.070;14.492;2024-03-02T05:43:52;22.40;68.30
74153;DHT22;62505;46.070;14.492;2024-03-02T05:46:19;22.40;68.30
74153;DHT22;62505;46.070;14.492;2024-03-02T05:48:49;22.40;68.40
74153;DHT22;62505;46.070;14.492;2024-03-02T05:51:16;22.40;68.20
74153;DHT22;62505;46.070;14.492;2024-03-02T05:53:43;22.40;68.20
74153;DHT22;62505;46.070;14.492;2024-03-02T05:56:10;22.40;68.20
74153;DHT22;62505;46.070;14.492;2024-03-02T05:58:37;22.40;68.20
74153;DHT22;62505;46.070;14.492;2024-03-02T06:01:15;22.40;68.20
74153;DHT22;62505;46.070;14.492;2024-03-02T06:03:43;22.40;68.30
74153;DHT22;62505;46.070;14.492;2024-03-02T06:06:12;22.40;68.20
74153;DHT22;62505;46.070;14.492;2024-03-02T06:08:38;22.40;68.20
74153;DHT22;62505;46.070;14.492;2024-03-02T06:11:05;22.40;68.20
74153;DHT22;62505;46.070;14.492;2024-03-02T06:13:32;22.40;68.20
74153;DHT22;62505;46.070;14.492;2024-03-02T06:15:59;22.40;68.20
74153;DHT22;62505;46.070;14.492;2024-03-02T06:18:26;22.40;69.00
74153;DHT22;62505;46.070;14.492;2024-03-02T06:20:53;22.40;68.20
74153;DHT22;62505;46.070;14.492;2024-03-02T06:23:22;22.40;68.20
74153;DHT22;62505;46.070;14.492;2024-03-02T06:25:49;22.40;68.20
74153;DHT22;62505;46.070;14.492;2024-03-02T06:28:16;22.40;68.20
74153;DHT22;62505;46.070;14.492;2024-03-02T06:30:43;22.40;68.20
74153;DHT22;62505;46.070;14.492;2024-03-02T06:33:10;22.40;68.10
74153;DHT22;62505;46.070;14.492;2024-03-02T06:35:36;22.40;68.10
74153;DHT22;62505;46.070;14.492;2024-03-02T06:38:04;22.40;68.20
74153;DHT22;62505;46.070;14.492;2024-03-02T06:40:33;22.40;68.20
74153;DHT22;62505;46.070;14.492;2024-03-02T06:43:00;22.40;68.10
74153;DHT22;62505;46.070;14.492;2024-03-02T06:45:27;22.40;68.10
74153;DHT22;62505;46.070;14.492;2024-03-02T06:47:56;22.30;68.20
74153;DHT22;62505;46.070;14.492;2024-03-02T06:50:24;22.40;68.30
74153;DHT22;62505;46.070;14.492;2024-03-02T06:52:51;22.40;68.30
74153;DHT22;62505;46.070;14.492;2024-03-02T06:55:18;22.40;68.20
74153;DHT22;62505;46.070;14.492;2024-03-02T06:57:46;22.40;68.40
74153;DHT22;62505;46.070;14.492;2024-03-02T07:00:14;22.40;68.40
74153;DHT22;62505;46.070;14.492;2024-03-02T07:02:43;22.40;68.50
74153;DHT22;62505;46.070;14.492;2024-03-02T07:05:11;22.40;68.50
74153;DHT22;62505;46.070;14.492;2024-03-02T07:07:38;22.40;68.60
74153;DHT22;62505;46.070;14.492;2024-03-02T07:10:05;22.40;68.60
74153;DHT22;62505;46.070;14.492;2024-03-02T07:12:33;22.40;68.60
74153;DHT22;62505;46.070;14.492;2024-03-02T07:15:01;22.40;68.60
74153;DHT22;62505;46.070;14.492;2024-03-02T07:17:50;22.40;68.50
74153;DHT22;62505;46.070;14.492;2024-03-02T07:20:17;22.40;69.30
74153;DHT22;62505;46.070;14.492;2024-03-02T07:22:44;22.40;68.50
74153;DHT22;62505;46.070;14.492;2024-03-02T07:25:11;22.40;68.50
74153;DHT22;62505;46.070;14.492;2024-03-02T07:27:38;22.40;68.50
74153;DHT22;62505;46.070;14.492;2024-03-02T07:30:08;22.40;68.50
74153;DHT22;62505;46.070;14.492;2024-03-02T07:32:37;22.40;68.60
74153;DHT22;62505;46.070;14.492;2024-03-02T07:35:05;22.50;68.60
74153;DHT22;62505;46.070;14.492;2024-03-02T07:37:33;22.40;68.60
74153;DHT22;62505;46.070;14.492;2024-03-02T07:40:00;22.40;68.50
74153;DHT22;62505;46.070;14.492;2024-03-02T07:42:28;22.40;68.60
74153;DHT22;62505;46.070;14.492;2024-03-02T07:44:55;22.40;68.60
74153;DHT22;62505;46.070;14.492;2024-03-02T07:47:24;22.40;68.40
74153;DHT22;62505;46.070;14.492;2024-03-02T07:49:51;22.40;68.50
74153;DHT22;62505;46.070;14.492;2024-03-02T07:52:18;22.40;68.50
74153;DHT22;62505;46.070;14.492;2024-03-02T07:54:45;22.40;68.50
74153;DHT22;62505;46.070;14.492;2024-03-02T07:57:12;22.40;68.50
74153;DHT22;62505;46.070;14.492;2024-03-02T07:59:39;22.40;68.50
74153;DHT22;62505;46.070;14.492;2024-03-02T08:02:06;22.40;68.50
74153;DHT22;62505;46.070;14.492;2024-03-02T08:04:35;22.40;68.50
74153;DHT22;62505;46.070;14.492;2024-03-02T08:07:02;22.40;68.50
74153;DHT22;62505;46.070;14.492;2024-03-02T08:09:29;22.40;68.50
74153;DHT22;62505;46.070;14.492;2024-03-02T08:11:56;22.40;68.50
74153;DHT22;62505;46.070;14.492;2024-03-02T08:14:23;22.40;68.50
74153;DHT22;62505;46.070;14.492;2024-03-02T08:16:50;22.40;68.50
74153;DHT22;62505;46.070;14.492;2024-03-02T08:19:17;22.40;68.50
74153;DHT22;62505;46.070;14.492;2024-03-02T08:21:46;22.40;68.50
74153;DHT22;62505;46.070;14.492;2024-03-02T08:24:13;22.40;68.50
74153;DHT22;62505;46.070;14.492;2024-03-02T08:26:40;22.40;68.50
74153;DHT22;62505;46.070;14.492;2024-03-02T08:29:07;22.40;68.50
74153;DHT22;62505;46.070;14.492;2024-03-02T08:31:34;22.40;68.50
74153;DHT22;62505;46.070;14.492;2024-03-02T08:34:01;22.40;68.50
74153;DHT22;62505;46.070;14.492;2024-03-02T08:36:28;22.40;68.40
74153;DHT22;62505;46.070;14.492;2024-03-02T08:38:56;22.40;68.40
74153;DHT22;62505;46.070;14.492;2024-03-02T08:41:23;22.40;69.20
74153;DHT22;62505;46.070;14.492;2024-03-02T08:43:50;22.40;68.40
74153;DHT22;62505;46.070;14.492;2024-03-02T08:46:17;22.40;68.40
74153;DHT22;62505;46.070;14.492;2024-03-02T08:48:44;22.40;68.40
74153;DHT22;62505;46.070;14.492;2024-03-02T08:51:12;22.40;68.40
74153;DHT22;62505;46.070;14.492;2024-03-02T08:53:39;22.40;69.10
74153;DHT22;62505;46.070;14.492;2024-03-02T08:56:07;22.40;68.20
74153;DHT22;62505;46.070;14.492;2024-03-02T08:58:34;22.40;68.30
74153;DHT22;62505;46.070;14.492;2024-03-02T09:01:02;22.40;68.20
74153;DHT22;62505;46.070;14.492;2024-03-02T09:03:29;22.40;68.20
74153;DHT22;62505;46.070;14.492;2024-03-02T09:05:58;22.40;68.20
74153;DHT22;62505;46.070;14.492;2024-03-02T09:08:25;22.40;68.20
74153;DHT22;62505;46.070;14.492;2024-03-02T09:10:53;22.40;68.20
74153;DHT22;62505;46.070;14.492;2024-03-02T09:13:21;22.40;68.30
74153;DHT22;62505;46.070;14.492;2024-03-02T09:15:48;22.40;68.30
74153;DHT22;62505;46.070;14.492;2024-03-02T09:18:15;22.40;68.20
74153;DHT22;62505;46.070;14.492;2024-03-02T09:20:42;22.40;68.20
74153;DHT22;62505;46.070;14.492;2024-03-02T09:23:09;22.40;68.20
74153;DHT22;62505;46.070;14.492;2024-03-02T09:25:36;22.40;68.20
74153;DHT22;62505;46.070;14.492;2024-03-02T09:28:03;22.40;68.30
74153;DHT22;62505;46.070;14.492;2024-03-02T09:30:32;22.40;68.20
74153;DHT22;62505;46.070;14.492;2024-03-02T09:32:59;22.40;68.20
74153;DHT22;62505;46.070;14.492;2024-03-02T09:35:26;22.40;68.30
74153;DHT22;62505;46.070;14.492;2024-03-02T09:37:53;22.50;68.30
74153;DHT22;62505;46.070;14.492;2024-03-02T09:40:22;22.40;68.40
74153;DHT22;62505;46.070;14.492;2024-03-02T09:42:49;22.40;68.30
74153;DHT22;62505;46.070;14.492;2024-03-02T09:45:20;22.40;68.30
74153;DHT22;62505;46.070;14.492;2024-03-02T09:47:51;22.40;68.20
74153;DHT22;62505;46.070;14.492;2024-03-02T09:50:18;22.40;68.20
74153;DHT22;62505;46.070;14.492;2024-03-02T09:52:48;22.40;68.30
74153;DHT22;62505;46.070;14.492;2024-03-02T09:55:16;22.40;68.30
74153;DHT22;62505;46.070;14.492;2024-03-02T09:57:43;22.40;68.20
74153;DHT22;62505;46.070;14.492;2024-03-02T10:00:12;22.50;68.30
74153;DHT22;62505;46.070;14.492;2024-03-02T10:02:40;22.40;68.20
74153;DHT22;62505;46.070;14.492;2024-03-02T10:05:09;22.50;68.20
74153;DHT22;62505;46.070;14.492;2024-03-02T10:07:37;22.50;68.30
74153;DHT22;62505;46.070;14.492;2024-03-02T10:10:13;22.60;68.10
74153;DHT22;62505;46.070;14.492;2024-03-02T10:12:40;22.50;68.00
74153;DHT22;62505;46.070;14.492;2024-03-02T10:15:08;22.50;68.10
74153;DHT22;62505;46.070;14.492;2024-03-02T10:17:35;22.50;68.10
74153;DHT22;62505;46.070;14.492;2024-03-02T10:20:25;22.50;68.10
74153;DHT22;62505;46.070;14.492;2024-03-02T10:22:54;22.60;68.10
74153;DHT22;62505;46.070;14.492;2024-03-02T10:25:31;22.50;68.20
74153;DHT22;62505;46.070;14.492;2024-03-02T10:27:58;22.50;68.20
74153;DHT22;62505;46.070;14.492;2024-03-02T10:30:27;22.50;68.10
74153;DHT22;62505;46.070;14.492;2024-03-02T10:32:55;22.50;68.10
74153;DHT22;62505;46.070;14.492;2024-03-02T10:35:23;22.50;68.50
74153;DHT22;62505;46.070;14.492;2024-03-02T10:37:53;22.50;68.50
74153;DHT22;62505;46.070;14.492;2024-03-02T10:40:21;22.60;68.60
74153;DHT22;62505;46.070;14.492;2024-03-02T10:42:50;22.60;67.60
74153;DHT22;62505;46.070;14.492;2024-03-02T10:45:19;22.50;65.00
74153;DHT22;62505;46.070;14.492;2024-03-02T10:50:12;22.40;60.50
74153;DHT22;62505;46.070;14.492;2024-03-02T10:52:39;22.40;62.30
74153;DHT22;62505;46.070;14.492;2024-03-02T10:55:09;22.40;63.50
74153;DHT22;62505;46.070;14.492;2024-03-02T10:57:42;22.40;64.30
74153;DHT22;62505;46.070;14.492;2024-03-02T11:00:12;22.40;64.80
74153;DHT22;62505;46.070;14.492;2024-03-02T11:02:45;22.40;65.10
74153;DHT22;62505;46.070;14.492;2024-03-02T11:05:26;22.40;65.60
74153;DHT22;62505;46.070;14.492;2024-03-02T11:07:57;22.40;65.80
74153;DHT22;62505;46.070;14.492;2024-03-02T11:10:34;22.40;66.10
74153;DHT22;62505;46.070;14.492;2024-03-02T11:13:05;22.40;66.50
74153;DHT22;62505;46.070;14.492;2024-03-02T11:15:34;22.40;66.90
74153;DHT22;62505;46.070;14.492;2024-03-02T11:18:04;22.40;66.90
74153;DHT22;62505;46.070;14.492;2024-03-02T11:20:36;22.40;66.80
74153;DHT22;62505;46.070;14.492;2024-03-02T11:23:05;22.40;66.80
74153;DHT22;62505;46.070;14.492;2024-03-02T11:25:34;22.40;66.70
74153;DHT22;62505;46.070;14.492;2024-03-02T11:28:05;22.40;66.40
74153;DHT22;62505;46.070;14.492;2024-03-02T11:30:51;22.40;66.20
74153;DHT22;62505;46.070;14.492;2024-03-02T11:33:26;22.40;66.20
74153;DHT22;62505;46.070;14.492;2024-03-02T11:35:56;22.40;65.70
74153;DHT22;62505;46.070;14.492;2024-03-02T11:38:24;22.40;65.40
74153;DHT22;62505;46.070;14.492;2024-03-02T11:40:55;22.40;65.90
74153;DHT22;62505;46.070;14.492;2024-03-02T11:43:23;22.30;65.80
74153;DHT22;62505;46.070;14.492;2024-03-02T11:45:57;22.40;65.50
74153;DHT22;62505;46.070;14.492;2024-03-02T11:48:25;22.30;65.70
74153;DHT22;62505;46.070;14.492;2024-03-02T11:50:52;22.30;65.50
74153;DHT22;62505;46.070;14.492;2024-03-02T11:53:20;22.30;64.80
74153;DHT22;62505;46.070;14.492;2024-03-02T11:55:48;22.30;63.50
74153;DHT22;62505;46.070;14.492;2024-03-02T11:58:17;22.30;64.20
74153;DHT22;62505;46.070;14.492;2024-03-02T12:00:46;22.30;64.20
74153;DHT22;62505;46.070;14.492;2024-03-02T12:03:14;22.30;64.30
74153;DHT22;62505;46.070;14.492;2024-03-02T12:05:42;22.30;64.90
74153;DHT22;62505;46.070;14.492;2024-03-02T12:08:10;22.30;64.90
74153;DHT22;62505;46.070;14.492;2024-03-02T12:10:38;22.30;65.10
74153;DHT22;62505;46.070;14.492;2024-03-02T12:13:07;22.30;65.10
74153;DHT22;62505;46.070;14.492;2024-03-02T12:15:38;22.30;65.70
74153;DHT22;62505;46.070;14.492;2024-03-02T12:18:06;22.30;66.30
74153;DHT22;62505;46.070;14.492;2024-03-02T12:20:34;22.30;66.40
74153;DHT22;62505;46.070;14.492;2024-03-02T12:23:02;22.30;66.60
74153;DHT22;62505;46.070;14.492;2024-03-02T12:25:32;22.30;66.80
74153;DHT22;62505;46.070;14.492;2024-03-02T12:28:01;22.30;66.90
74153;DHT22;62505;46.070;14.492;2024-03-02T12:30:30;22.30;67.30
74153;DHT22;62505;46.070;14.492;2024-03-02T12:32:59;22.30;67.40
74153;DHT22;62505;46.070;14.492;2024-03-02T12:35:26;22.30;67.60
74153;DHT22;62505;46.070;14.492;2024-03-02T12:37:53;22.30;67.70
74153;DHT22;62505;46.070;14.492;2024-03-02T12:40:21;22.30;67.80
74153;DHT22;62505;46.070;14.492;2024-03-02T12:42:49;22.30;68.00
74153;DHT22;62505;46.070;14.492;2024-03-02T12:45:16;22.30;68.10
74153;DHT22;62505;46.070;14.492;2024-03-02T12:47:49;22.30;68.30
74153;DHT22;62505;46.070;14.492;2024-03-02T12:50:18;22.30;68.30
74153;DHT22;62505;46.070;14.492;2024-03-02T12:52:51;22.30;68.30
74153;DHT22;62505;46.070;14.492;2024-03-02T12:55:20;22.30;68.30
74153;DHT22;62505;46.070;14.492;2024-03-02T12:57:50;22.30;68.20
74153;DHT22;62505;46.070;14.492;2024-03-02T13:00:19;22.30;68.60
74153;DHT22;62505;46.070;14.492;2024-03-02T13:02:47;22.30;68.50
74153;DHT22;62505;46.070;14.492;2024-03-02T13:05:17;22.30;68.70
74153;DHT22;62505;46.070;14.492;2024-03-02T13:07:47;22.30;68.70
74153;DHT22;62505;46.070;14.492;2024-03-02T13:10:14;22.30;69.00
74153;DHT22;62505;46.070;14.492;2024-03-02T13:12:41;22.30;68.70
74153;DHT22;62505;46.070;14.492;2024-03-02T13:15:08;22.30;68.80
74153;DHT22;62505;46.070;14.492;2024-03-02T13:17:36;22.40;69.00
74153;DHT22;62505;46.070;14.492;2024-03-02T13:20:03;22.30;69.00
74153;DHT22;62505;46.070;14.492;2024-03-02T13:22:35;22.40;69.00
74153;DHT22;62505;46.070;14.492;2024-03-02T13:25:02;22.30;69.00
74153;DHT22;62505;46.070;14.492;2024-03-02T13:27:30;22.30;69.30
74153;DHT22;62505;46.070;14.492;2024-03-02T13:29:57;22.30;69.20
74153;DHT22;62505;46.070;14.492;2024-03-02T13:32:25;22.30;69.40
74153;DHT22;62505;46.070;14.492;2024-03-02T13:34:52;22.40;69.60
74153;DHT22;62505;46.070;14.492;2024-03-02T13:37:20;22.40;69.50
74153;DHT22;62505;46.070;14.492;2024-03-02T13:39:48;22.30;69.60
74153;DHT22;62505;46.070;14.492;2024-03-02T13:42:15;22.30;69.00
74153;DHT22;62505;46.070;14.492;2024-03-02T13:44:43;22.30;69.20
74153;DHT22;62505;46.070;14.492;2024-03-02T13:47:14;22.30;69.20
74153;DHT22;62505;46.070;14.492;2024-03-02T13:49:41;22.30;69.20
74153;DHT22;62505;46.070;14.492;2024-03-02T13:52:10;22.30;69.10
74153;DHT22;62505;46.070;14.492;2024-03-02T13:54:39;22.30;69.40
74153;DHT22;62505;46.070;14.492;2024-03-02T13:57:10;22.30;69.60
74153;DHT22;62505;46.070;14.492;2024-03-02T13:59:37;22.30;69.70
74153;DHT22;62505;46.070;14.492;2024-03-02T14:02:05;22.30;69.80
74153;DHT22;62505;46.070;14.492;2024-03-02T14:04:32;22.30;70.00
74153;DHT22;62505;46.070;14.492;2024-03-02T14:07:00;22.30;70.20
74153;DHT22;62505;46.070;14.492;2024-03-02T14:09:28;22.30;70.30
74153;DHT22;62505;46.070;14.492;2024-03-02T14:11:55;22.30;70.50
74153;DHT22;62505;46.070;14.492;2024-03-02T14:14:24;22.40;70.70
74153;DHT22;62505;46.070;14.492;2024-03-02T14:16:51;22.40;70.80
74153;DHT22;62505;46.070;14.492;2024-03-02T14:19:18;22.40;70.90
74153;DHT22;62505;46.070;14.492;2024-03-02T14:21:47;22.40;71.00
74153;DHT22;62505;46.070;14.492;2024-03-02T14:24:14;22.40;71.00
74153;DHT22;62505;46.070;14.492;2024-03-02T14:26:41;22.40;71.10
74153;DHT22;62505;46.070;14.492;2024-03-02T14:29:09;22.40;71.20
74153;DHT22;62505;46.070;14.492;2024-03-02T14:31:38;22.40;71.30
74153;DHT22;62505;46.070;14.492;2024-03-02T14:34:05;22.40;71.30
74153;DHT22;62505;46.070;14.492;2024-03-02T14:36:32;22.40;71.50
74153;DHT22;62505;46.070;14.492;2024-03-02T14:38:59;22.40;71.40
74153;DHT22;62505;46.070;14.492;2024-03-02T14:41:26;22.40;71.50
74153;DHT22;62505;46.070;14.492;2024-03-02T14:43:53;22.40;71.60
74153;DHT22;62505;46.070;14.492;2024-03-02T14:46:20;22.40;71.70
74153;DHT22;62505;46.070;14.492;2024-03-02T14:48:49;22.40;71.80
74153;DHT22;62505;46.070;14.492;2024-03-02T14:51:16;22.40;71.80
74153;DHT22;62505;46.070;14.492;2024-03-02T14:53:43;22.40;71.80
74153;DHT22;62505;46.070;14.492;2024-03-02T14:56:10;22.40;71.90
74153;DHT22;62505;46.070;14.492;2024-03-02T14:58:38;22.40;71.80
74153;DHT22;62505;46.070;14.492;2024-03-02T15:01:06;22.40;71.90
74153;DHT22;62505;46.070;14.492;2024-03-02T15:03:34;22.40;71.90
74153;DHT22;62505;46.070;14.492;2024-03-02T15:06:04;22.40;72.00
74153;DHT22;62505;46.070;14.492;2024-03-02T15:08:32;22.40;72.00
74153;DHT22;62505;46.070;14.492;2024-03-02T15:10:59;22.40;72.00
74153;DHT22;62505;46.070;14.492;2024-03-02T15:13:26;22.40;72.00
74153;DHT22;62505;46.070;14.492;2024-03-02T15:15:53;22.40;72.90
74153;DHT22;62505;46.070;14.492;2024-03-02T15:18:20;22.40;72.10
74153;DHT22;62505;46.070;14.492;2024-03-02T15:20:47;22.40;72.20
74153;DHT22;62505;46.070;14.492;2024-03-02T15:23:16;22.40;72.30
74153;DHT22;62505;46.070;14.492;2024-03-02T15:25:43;22.40;72.40